Rosario de la Frontera, Argentina
Current Conditions -  °F | °C
As of 8:00 AM on Thursday 23 Oct 2014 (Local Time) from SANT Reporting Station
Clear Clear  
Wind Chill: 73°   Ceiling: Unl
Heat Index: 73°   Visibility: 5mi
Dew Point: 59°   Wind: 7mph
Humidity: 61%   Direction: 320°NW
Pressure: 29.94"   Gusts: NA
Location:  25.8°S, 64.97°W
Report Text: SANT 231100Z 32006KT 8000 NSC 23/15 Q1014
Loading
Personal Weather Stations






























Interactive Weather Map
Tropical Storm Tracking
New forecast layout! Learn more

10-Day Weather Forecast

Advertisements
Track Severe Weather on mobile